Time;durP1;ratioP1;P1;durP2;ratioP2;P2;SDS_P1;SDS_P2;PMS_P1;PMS_P2;Temp;Humidity;BMP_temperature;BMP_pressure;BME280_temperature;BME280_humidity;BME280_pressure;Samples;Min_cycle;Max_cycle;Signal;HPM_P1;HPM_P2
2021/09/26 00:01:28;;;;;;;21.23;12.15;;;23.70;75.20;;;;;;5053018;28;20040;-75
2021/09/26 00:03:57;;;;;;;19.92;12.88;;;23.70;75.70;;;;;;5052930;28;20424;-77
2021/09/26 00:06:22;;;;;;;15.30;11.27;;;23.60;76.00;;;;;;5052908;28;20029;-75
2021/09/26 00:08:48;;;;;;;17.10;11.02;;;23.60;75.70;;;;;;5052974;28;20027;-75
2021/09/26 00:11:14;;;;;;;15.13;10.88;;;23.60;76.10;;;;;;5052725;28;20063;-75
2021/09/26 00:13:41;;;;;;;16.50;10.05;;;23.60;75.80;;;;;;5052498;28;20025;-73
2021/09/26 00:16:09;;;;;;;17.55;11.30;;;23.60;76.00;;;;;;5052441;28;20025;-75
2021/09/26 00:18:36;;;;;;;16.02;11.07;;;23.60;75.40;;;;;;5052732;28;20029;-74
2021/09/26 00:21:01;;;;;;;17.58;11.25;;;23.60;75.50;;;;;;5052881;28;20037;-75
2021/09/26 00:23:27;;;;;;;21.15;11.93;;;23.60;75.30;;;;;;5052618;28;20025;-74
2021/09/26 00:25:54;;;;;;;17.48;11.68;;;23.60;75.40;;;;;;5052340;28;20052;-75
2021/09/26 00:28:22;;;;;;;20.45;11.70;;;23.60;75.30;;;;;;5055398;28;20375;-75
2021/09/26 00:30:49;;;;;;;16.90;11.63;;;23.60;75.60;;;;;;5056312;28;20025;-74
2021/09/26 00:33:15;;;;;;;20.00;12.07;;;23.60;75.40;;;;;;5056326;28;20123;-75
2021/09/26 00:35:41;;;;;;;15.75;11.60;;;23.60;75.40;;;;;;5056192;28;20382;-75
2021/09/26 00:38:07;;;;;;;18.23;11.30;;;23.60;75.30;;;;;;5056094;28;20071;-75
2021/09/26 00:40:34;;;;;;;18.38;10.52;;;23.70;75.30;;;;;;5056091;28;20040;-75
2021/09/26 00:43:00;;;;;;;18.83;11.18;;;23.70;75.20;;;;;;5056088;28;20013;-75
2021/09/26 00:45:26;;;;;;;15.20;10.30;;;23.70;75.20;;;;;;5056348;28;20037;-75
2021/09/26 00:47:52;;;;;;;16.30;10.23;;;23.60;75.10;;;;;;5059504;28;20025;-74
2021/09/26 00:50:19;;;;;;;15.60;9.25;;;23.60;74.80;;;;;;5056695;28;20021;-76
2021/09/26 00:52:49;;;;;;;16.27;9.52;;;23.60;74.70;;;;;;5064321;28;20162;-75
2021/09/26 00:55:15;;;;;;;14.40;8.98;;;23.60;75.30;;;;;;5055142;28;20493;-74
2021/09/26 00:57:43;;;;;;;17.15;9.32;;;23.60;79.30;;;;;;5056045;28;20028;-77
2021/09/26 01:00:10;;;;;;;15.00;8.90;;;23.50;75.40;;;;;;5056031;28;20087;-74
2021/09/26 01:02:36;;;;;;;12.00;8.55;;;23.50;75.20;;;;;;5055495;28;20238;-74
2021/09/26 01:05:03;;;;;;;14.68;8.82;;;23.50;75.00;;;;;;5055412;28;20584;-77
2021/09/26 01:07:33;;;;;;;15.55;9.07;;;23.40;77.00;;;;;;5055626;28;20052;-74
2021/09/26 01:10:04;;;;;;;15.68;9.05;;;23.30;78.50;;;;;;5055562;28;20485;-76
2021/09/26 01:12:40;;;;;;;14.40;8.95;;;23.30;74.40;;;;;;5055720;28;20043;-75
2021/09/26 01:15:28;;;;;;;14.45;8.85;;;23.30;78.30;;;;;;5055210;28;20024;-75
2021/09/26 01:18:30;;;;;;;16.30;9.20;;;23.30;74.50;;;;;;5055321;28;20017;-75
2021/09/26 01:21:16;;;;;;;15.27;8.73;;;23.30;74.30;;;;;;5054717;28;20489;-74
2021/09/26 01:24:09;;;;;;;12.43;8.48;;;23.20;74.30;;;;;;5055101;28;20440;-75
2021/09/26 01:26:53;;;;;;;13.15;8.07;;;23.20;74.40;;;;;;5054985;28;20110;-75
2021/09/26 01:29:57;;;;;;;16.55;9.13;;;23.20;74.00;;;;;;5055438;28;20083;-74
2021/09/26 01:32:24;;;;;;;12.98;8.52;;;23.20;74.10;;;;;;5055128;28;20043;-75
2021/09/26 01:34:53;;;;;;;14.70;8.68;;;23.20;75.30;;;;;;5055785;28;20028;-74
2021/09/26 01:37:27;;;;;;;15.55;9.15;;;23.10;75.30;;;;;;5054919;28;20102;-74
2021/09/26 01:40:01;;;;;;;16.05;8.52;;;23.10;75.50;;;;;;5054706;28;20029;-74
2021/09/26 01:42:35;;;;;;;17.27;8.50;;;23.00;75.40;;;;;;5054921;28;20104;-74
2021/09/26 01:45:11;;;;;;;14.68;8.27;;;23.00;74.80;;;;;;5053291;28;20032;-75
2021/09/26 01:48:03;;;;;;;14.82;8.35;;;22.90;73.70;;;;;;5054448;28;20032;-74
2021/09/26 01:50:31;;;;;;;14.38;8.57;;;22.90;75.60;;;;;;5054382;28;20048;-73
2021/09/26 01:53:00;;;;;;;16.00;8.52;;;22.80;75.20;;;;;;5054480;28;20040;-74
2021/09/26 01:55:27;;;;;;;15.52;7.85;;;22.70;77.40;;;;;;5054223;28;20086;-74
2021/09/26 01:57:56;;;;;;;11.73;7.65;;;22.70;75.50;;;;;;5054364;28;20021;-75
2021/09/26 02:00:22;;;;;;;14.45;7.57;;;22.70;75.40;;;;;;5052820;28;20068;-74
2021/09/26 02:02:48;;;;;;;12.10;7.00;;;22.70;75.00;;;;;;5054426;28;20060;-74
2021/09/26 02:05:18;;;;;;;9.93;7.32;;;22.60;75.40;;;;;;5054232;28;20462;-74
2021/09/26 02:07:46;;;;;;;13.52;6.93;;;22.60;78.70;;;;;;5054241;28;20033;-75
2021/09/26 02:10:14;;;;;;;10.48;7.18;;;22.60;78.20;;;;;;5054587;28;20036;-75
2021/09/26 02:12:40;;;;;;;11.38;7.25;;;22.60;77.50;;;;;;5054074;28;20078;-75
2021/09/26 02:15:09;;;;;;;12.13;7.35;;;22.60;75.00;;;;;;5054369;28;20096;-75
2021/09/26 02:17:37;;;;;;;14.63;7.50;;;22.50;74.60;;;;;;5054399;28;20086;-74
2021/09/26 02:20:05;;;;;;;13.40;7.30;;;22.50;74.90;;;;;;5054131;28;20049;-75
2021/09/26 02:22:34;;;;;;;11.90;6.65;;;22.50;74.30;;;;;;5054192;28;20025;-75
2021/09/26 02:25:03;;;;;;;11.00;6.85;;;22.60;73.00;;;;;;5054219;28;20029;-74
2021/09/26 02:27:30;;;;;;;9.73;6.68;;;22.60;78.50;;;;;;5054388;28;20025;-74
2021/09/26 02:29:56;;;;;;;11.38;6.45;;;22.60;77.80;;;;;;5053894;28;20032;-75
2021/09/26 02:32:22;;;;;;;11.65;6.38;;;22.60;76.60;;;;;;5052667;28;20492;-75
2021/09/26 02:34:47;;;;;;;10.70;6.45;;;22.50;77.00;;;;;;5053852;28;20079;-76
2021/09/26 02:37:13;;;;;;;10.27;6.97;;;22.60;76.50;;;;;;5052574;28;20027;-75
2021/09/26 02:39:40;;;;;;;14.70;6.97;;;22.50;76.10;;;;;;5054005;28;20051;-75
2021/09/26 02:42:35;;;;;;;13.35;6.88;;;22.50;76.20;;;;;;5053830;28;20024;-77
2021/09/26 02:45:33;;;;;;;11.55;6.65;;;22.40;71.80;;;;;;5053570;28;20461;-78
2021/09/26 02:48:18;;;;;;;12.18;7.10;;;22.40;77.20;;;;;;5052320;28;20033;-75
2021/09/26 02:50:46;;;;;;;11.25;6.55;;;22.40;77.80;;;;;;5053164;28;20032;-75
2021/09/26 02:53:13;;;;;;;11.90;6.93;;;22.40;77.30;;;;;;5053708;28;20112;-76
2021/09/26 02:55:40;;;;;;;11.20;7.00;;;22.40;72.40;;;;;;5053252;28;20116;-75
2021/09/26 02:58:07;;;;;;;16.88;7.90;;;22.40;72.70;;;;;;5053157;28;20017;-75
2021/09/26 03:00:39;;;;;;;10.13;5.90;;;22.40;72.70;;;;;;5053334;28;20041;-74
2021/09/26 03:03:08;;;;;;;12.38;5.93;;;22.40;72.90;;;;;;5053486;28;20359;-77
2021/09/26 03:05:35;;;;;;;10.10;6.20;;;22.30;72.50;;;;;;5053378;28;20045;-74
2021/09/26 03:08:01;;;;;;;12.80;6.40;;;22.20;72.50;;;;;;5058552;28;20397;-73
2021/09/26 03:10:27;;;;;;;14.15;6.40;;;22.20;72.70;;;;;;5064132;28;20032;-75
2021/09/26 03:12:53;;;;;;;13.38;6.32;;;22.10;72.50;;;;;;5053526;28;20028;-77
2021/09/26 03:15:19;;;;;;;10.05;6.03;;;22.10;72.70;;;;;;5053001;28;20105;-76
2021/09/26 03:17:44;;;;;;;15.15;6.20;;;22.10;72.60;;;;;;5053047;28;20107;-76
2021/09/26 03:20:11;;;;;;;8.65;5.88;;;22.10;72.50;;;;;;5052517;28;20482;-77
2021/09/26 03:22:36;;;;;;;13.63;6.80;;;22.10;72.60;;;;;;5053073;28;20025;-75
2021/09/26 03:25:02;;;;;;;8.95;5.30;;;22.10;73.30;;;;;;5052887;28;20043;-75
2021/09/26 03:27:28;;;;;;;11.55;5.88;;;22.00;72.80;;;;;;5052997;28;20072;-75
2021/09/26 03:29:54;;;;;;;9.93;5.85;;;22.10;72.90;;;;;;5052903;28;20092;-77
2021/09/26 03:32:19;;;;;;;11.50;6.07;;;22.10;73.10;;;;;;5052948;28;20086;-76
2021/09/26 03:34:45;;;;;;;10.30;6.55;;;22.00;72.90;;;;;;5052705;28;20017;-77
2021/09/26 03:37:11;;;;;;;13.88;5.97;;;22.00;73.00;;;;;;5052714;28;20489;-76
2021/09/26 03:39:38;;;;;;;13.45;5.93;;;22.10;72.90;;;;;;5052869;28;20025;-76
2021/09/26 03:42:04;;;;;;;10.60;5.50;;;22.00;72.50;;;;;;5052886;28;20464;-77
2021/09/26 03:44:30;;;;;;;10.25;5.38;;;22.00;72.30;;;;;;5052692;28;20100;-74
2021/09/26 03:46:56;;;;;;;11.88;6.07;;;22.10;72.50;;;;;;5051397;28;20160;-74
2021/09/26 03:49:22;;;;;;;9.57;5.63;;;22.10;72.10;;;;;;5052967;28;20447;-77
2021/09/26 03:51:48;;;;;;;11.63;5.80;;;22.10;71.90;;;;;;5052949;28;20075;-75
2021/09/26 03:54:16;;;;;;;11.32;5.70;;;22.20;72.00;;;;;;5052710;28;20434;-76
2021/09/26 03:56:42;;;;;;;10.35;5.50;;;22.20;72.10;;;;;;5052835;28;20074;-75
2021/09/26 03:59:07;;;;;;;12.00;5.28;;;22.10;71.50;;;;;;5052617;28;20036;-75
2021/09/26 04:01:33;;;;;;;9.95;5.50;;;22.10;71.50;;;;;;5051219;28;20033;-76
2021/09/26 04:03:59;;;;;;;15.68;5.53;;;22.10;71.10;;;;;;5056642;28;20028;-76
2021/09/26 04:06:24;;;;;;;11.23;5.55;;;22.00;71.20;;;;;;5056368;28;20078;-76
2021/09/26 04:08:50;;;;;;;10.38;5.20;;;22.10;71.20;;;;;;5057603;28;20029;-77
2021/09/26 04:11:16;;;;;;;11.55;5.80;;;22.00;70.80;;;;;;5065583;28;20119;-75
2021/09/26 04:13:41;;;;;;;12.15;5.55;;;22.10;70.80;;;;;;5057079;28;20036;-76
2021/09/26 04:16:07;;;;;;;11.55;5.13;;;22.10;70.70;;;;;;5056543;28;20032;-76
2021/09/26 04:18:33;;;;;;;15.70;7.78;;;22.10;70.60;;;;;;5056186;28;20056;-75
2021/09/26 04:20:58;;;;;;;16.23;7.20;;;22.10;70.20;;;;;;5056045;28;20052;-77
2021/09/26 04:23:24;;;;;;;15.90;6.30;;;22.10;70.20;;;;;;5056467;28;20017;-76
2021/09/26 04:25:50;;;;;;;12.10;5.13;;;22.10;69.90;;;;;;5055903;28;20367;-77
2021/09/26 04:28:15;;;;;;;12.68;4.57;;;22.10;69.90;;;;;;5056253;28;20374;-76
2021/09/26 04:30:41;;;;;;;13.05;5.05;;;22.10;69.80;;;;;;5056137;28;20466;-76
2021/09/26 04:33:07;;;;;;;10.52;5.32;;;22.20;69.60;;;;;;5056020;28;20420;-75
2021/09/26 04:35:33;;;;;;;12.85;5.20;;;22.20;69.60;;;;;;5055853;28;20036;-75
2021/09/26 04:37:58;;;;;;;14.55;5.40;;;22.20;69.50;;;;;;5054849;28;20036;-76
2021/09/26 04:40:25;;;;;;;13.18;5.13;;;22.20;69.30;;;;;;5055992;28;20154;-76
2021/09/26 04:42:50;;;;;;;12.77;5.13;;;22.30;69.20;;;;;;5056098;28;20074;-76
2021/09/26 04:45:16;;;;;;;16.02;5.40;;;22.30;68.70;;;;;;5055663;28;20467;-76
2021/09/26 04:47:43;;;;;;;10.70;5.18;;;22.40;69.00;;;;;;5055713;28;20453;-77
2021/09/26 04:50:09;;;;;;;9.35;5.35;;;22.40;68.90;;;;;;5055697;28;20053;-76
2021/09/26 04:52:36;;;;;;;11.75;5.65;;;22.50;68.50;;;;;;5055854;28;20025;-75
2021/09/26 04:55:02;;;;;;;8.48;5.20;;;22.40;68.80;;;;;;5055773;28;20025;-75
2021/09/26 04:57:28;;;;;;;15.50;5.43;;;22.40;68.80;;;;;;5055511;28;20548;-76
2021/09/26 04:59:53;;;;;;;10.88;5.50;;;22.50;68.80;;;;;;5054253;28;20029;-74
2021/09/26 05:02:19;;;;;;;12.50;6.10;;;22.50;68.90;;;;;;5055756;28;20155;-76
2021/09/26 05:04:45;;;;;;;11.80;5.35;;;22.60;69.10;;;;;;5054077;28;20071;-79
2021/09/26 05:07:10;;;;;;;13.80;4.90;;;22.50;69.10;;;;;;5055814;28;20032;-77
2021/09/26 05:09:36;;;;;;;11.38;5.30;;;22.50;69.20;;;;;;5055649;28;20029;-76
2021/09/26 05:12:02;;;;;;;11.60;5.65;;;22.50;70.40;;;;;;5055558;28;20029;-77
2021/09/26 05:14:27;;;;;;;13.30;5.63;;;22.50;70.10;;;;;;5055590;28;20442;-77
2021/09/26 05:16:53;;;;;;;10.40;5.00;;;22.50;69.90;;;;;;5055426;28;20101;-79
2021/09/26 05:19:19;;;;;;;12.35;5.28;;;22.50;70.40;;;;;;5055473;28;20059;-75
2021/09/26 05:21:46;;;;;;;10.88;5.40;;;22.50;69.90;;;;;;5056626;28;20025;-78
2021/09/26 05:24:11;;;;;;;9.65;5.10;;;22.50;68.70;;;;;;5061776;28;20033;-75
2021/09/26 05:26:37;;;;;;;12.38;5.38;;;22.50;70.90;;;;;;5073194;28;20097;-75
2021/09/26 05:29:06;;;;;;;9.65;5.28;;;22.50;70.70;;;;;;5060006;28;20358;-75
2021/09/26 05:31:32;;;;;;;9.75;5.35;;;22.50;70.00;;;;;;5054980;28;20027;-73
2021/09/26 05:33:59;;;;;;;10.85;5.78;;;22.50;70.30;;;;;;5055414;28;20025;-74
2021/09/26 05:36:26;;;;;;;13.25;5.82;;;22.50;69.40;;;;;;5054707;28;20033;-75
2021/09/26 05:38:52;;;;;;;10.77;5.13;;;22.50;70.00;;;;;;5054559;28;20025;-74
2021/09/26 05:41:18;;;;;;;13.52;5.60;;;22.50;71.80;;;;;;5054652;28;20059;-76
2021/09/26 05:43:44;;;;;;;11.43;5.82;;;22.50;70.90;;;;;;5054885;28;20056;-78
2021/09/26 05:46:10;;;;;;;11.18;6.07;;;22.50;71.60;;;;;;5054698;28;20021;-78
2021/09/26 05:48:35;;;;;;;10.32;5.70;;;22.50;71.40;;;;;;5054712;28;20123;-76
2021/09/26 05:51:01;;;;;;;13.63;5.80;;;22.40;70.90;;;;;;5054820;28;20492;-77
2021/09/26 05:53:27;;;;;;;11.35;5.00;;;22.40;71.80;;;;;;5054653;28;20047;-77
2021/09/26 05:55:53;;;;;;;13.98;5.82;;;22.50;71.30;;;;;;5054621;28;20531;-76
2021/09/26 05:58:19;;;;;;;12.30;5.93;;;22.40;71.60;;;;;;5054549;28;20025;-76
2021/09/26 06:00:45;;;;;;;15.50;5.90;;;22.40;72.20;;;;;;5054358;28;20037;-75
2021/09/26 06:03:14;;;;;;;14.73;6.90;;;22.40;72.30;;;;;;5054230;28;20332;-76
2021/09/26 06:05:44;;;;;;;16.33;6.03;;;22.40;73.10;;;;;;5054065;28;20108;-74
2021/09/26 06:08:10;;;;;;;12.93;5.93;;;22.50;72.80;;;;;;5053919;28;20472;-74
2021/09/26 06:10:37;;;;;;;9.65;5.50;;;22.40;73.00;;;;;;5053961;28;20025;-76
2021/09/26 06:13:03;;;;;;;14.70;7.30;;;22.40;73.70;;;;;;5052680;28;20036;-75
2021/09/26 06:15:30;;;;;;;11.35;6.25;;;22.40;71.00;;;;;;5053971;28;20025;-76
2021/09/26 06:17:56;;;;;;;14.00;5.70;;;22.40;71.00;;;;;;5054157;28;20116;-75
2021/09/26 06:20:22;;;;;;;12.88;6.13;;;22.40;71.10;;;;;;5053825;28;20102;-75
2021/09/26 06:22:48;;;;;;;11.73;5.55;;;22.40;70.40;;;;;;5053914;28;20017;-75
2021/09/26 06:25:14;;;;;;;10.30;5.13;;;22.40;71.10;;;;;;5052853;28;20429;-74
2021/09/26 06:27:40;;;;;;;11.30;5.53;;;22.50;70.10;;;;;;5053552;28;20069;-74
2021/09/26 06:30:07;;;;;;;10.30;4.75;;;22.50;70.00;;;;;;5053715;28;20079;-75
2021/09/26 06:32:34;;;;;;;10.65;5.13;;;22.50;69.10;;;;;;5052427;28;20079;-75
2021/09/26 06:35:02;;;;;;;13.45;5.35;;;22.60;69.60;;;;;;5052539;28;20036;-77
2021/09/26 06:37:28;;;;;;;9.95;5.40;;;22.60;70.00;;;;;;5053852;28;20032;-75
2021/09/26 06:39:55;;;;;;;13.68;4.75;;;22.60;69.10;;;;;;5052620;28;20025;-76
2021/09/26 06:42:21;;;;;;;13.63;5.03;;;22.60;67.80;;;;;;5053721;28;20070;-75
2021/09/26 06:44:47;;;;;;;9.60;4.70;;;22.60;67.30;;;;;;5053455;28;20029;-77
2021/09/26 06:47:13;;;;;;;13.70;4.80;;;22.50;66.90;;;;;;5053422;28;20033;-75
2021/09/26 06:49:38;;;;;;;12.88;4.10;;;22.50;66.90;;;;;;5055548;28;20035;-76
2021/09/26 06:52:05;;;;;;;15.25;5.03;;;22.60;66.40;;;;;;5054407;28;20020;-75
2021/09/26 06:54:30;;;;;;;14.13;4.80;;;22.60;66.70;;;;;;5053489;28;20120;-76
2021/09/26 06:56:56;;;;;;;11.55;4.43;;;22.60;66.00;;;;;;5053446;28;20088;-75
2021/09/26 06:59:22;;;;;;;11.80;4.22;;;22.60;65.80;;;;;;5052912;28;20025;-76
2021/09/26 07:01:48;;;;;;;17.48;4.88;;;22.60;66.40;;;;;;5053287;28;20082;-76
2021/09/26 07:04:13;;;;;;;13.73;5.60;;;22.70;66.40;;;;;;5053427;28;20044;-77
2021/09/26 07:06:39;;;;;;;9.55;4.35;;;22.70;66.60;;;;;;5053439;28;20020;-78
2021/09/26 07:09:05;;;;;;;13.77;5.15;;;22.80;66.30;;;;;;5053012;28;20442;-79
2021/09/26 07:11:30;;;;;;;15.45;4.80;;;22.90;65.70;;;;;;5051505;28;20074;-77
2021/09/26 07:13:56;;;;;;;10.70;4.32;;;22.90;65.40;;;;;;5052924;28;20479;-77
2021/09/26 07:16:22;;;;;;;10.32;4.45;;;22.90;65.50;;;;;;5052926;28;20359;-77
2021/09/26 07:18:49;;;;;;;10.88;4.40;;;22.90;65.10;;;;;;5053191;28;20036;-77
2021/09/26 07:21:16;;;;;;;17.45;4.93;;;22.90;65.40;;;;;;5053176;28;20037;-75
2021/09/26 07:23:42;;;;;;;16.50;5.72;;;23.00;65.20;;;;;;5053935;28;20021;-76
2021/09/26 07:26:08;;;;;;;11.43;4.88;;;23.00;65.00;;;;;;5053515;28;20033;-78
2021/09/26 07:28:35;;;;;;;13.38;4.95;;;23.10;64.60;;;;;;5055540;28;20036;-76
2021/09/26 07:31:01;;;;;;;16.27;5.25;;;23.20;63.10;;;;;;5054272;28;20096;-76
2021/09/26 07:33:26;;;;;;;15.27;4.90;;;23.20;63.60;;;;;;5053224;28;20128;-77
2021/09/26 07:35:52;;;;;;;12.95;4.60;;;23.20;63.60;;;;;;5054169;28;20032;-77
2021/09/26 07:38:18;;;;;;;10.95;4.72;;;23.20;63.60;;;;;;5055901;28;20029;-76
2021/09/26 07:40:44;;;;;;;14.23;4.65;;;23.20;63.60;;;;;;5058829;28;20036;-75
2021/09/26 07:43:10;;;;;;;14.02;5.25;;;23.20;63.50;;;;;;5062072;28;20049;-76
2021/09/26 07:45:35;;;;;;;16.95;5.70;;;23.20;63.70;;;;;;5061277;28;20033;-76
2021/09/26 07:48:01;;;;;;;14.35;5.50;;;23.20;63.80;;;;;;5057320;28;20378;-78
2021/09/26 07:50:28;;;;;;;16.85;5.65;;;23.20;64.30;;;;;;5057157;28;20108;-76
2021/09/26 07:52:54;;;;;;;12.77;5.38;;;23.20;64.40;;;;;;5056595;28;20028;-77
2021/09/26 07:55:20;;;;;;;11.75;5.43;;;23.30;64.30;;;;;;5056701;28;20029;-76
2021/09/26 07:57:46;;;;;;;30.38;6.47;;;23.30;64.50;;;;;;5056474;28;20040;-78
2021/09/26 08:00:13;;;;;;;17.80;6.53;;;23.30;64.60;;;;;;5056633;28;20037;-78
2021/09/26 08:02:39;;;;;;;98.00;72.82;;;23.30;64.00;;;;;;5056538;28;20498;-77
2021/09/26 08:05:06;;;;;;;37.40;23.45;;;23.40;64.40;;;;;;5056882;28;20028;-77
2021/09/26 08:07:33;;;;;;;23.98;11.38;;;23.40;63.70;;;;;;5056522;28;20025;-75
2021/09/26 08:09:59;;;;;;;11.23;6.43;;;23.50;64.00;;;;;;5055625;28;20035;-76
2021/09/26 08:12:28;;;;;;;23.60;6.75;;;23.60;64.00;;;;;;5056471;28;20497;-76
2021/09/26 08:14:54;;;;;;;18.83;6.32;;;23.60;63.30;;;;;;5056410;28;20515;-77
2021/09/26 08:17:19;;;;;;;16.90;5.55;;;23.70;63.70;;;;;;5056426;28;20089;-76
2021/09/26 08:19:45;;;;;;;14.93;5.65;;;23.80;63.40;;;;;;5056181;28;20045;-76
2021/09/26 08:22:11;;;;;;;12.35;4.85;;;23.90;63.20;;;;;;5056272;28;20032;-76
2021/09/26 08:24:37;;;;;;;17.23;5.38;;;24.00;63.00;;;;;;5056123;28;20020;-78
2021/09/26 08:27:04;;;;;;;19.67;7.47;;;24.10;63.00;;;;;;5056053;28;20035;-76
2021/09/26 08:29:30;;;;;;;15.88;6.15;;;24.20;63.00;;;;;;5055899;28;20125;-76
2021/09/26 08:31:56;;;;;;;17.77;5.75;;;24.20;63.20;;;;;;5055762;28;20025;-78
2021/09/26 08:34:22;;;;;;;14.07;5.80;;;24.30;63.10;;;;;;5054738;28;20036;-76
2021/09/26 08:36:48;;;;;;;13.65;5.97;;;24.30;62.90;;;;;;5054405;28;20021;-78
2021/09/26 08:39:14;;;;;;;8.55;5.43;;;24.40;62.70;;;;;;5056258;28;20423;-78
2021/09/26 08:41:41;;;;;;;17.65;6.95;;;24.50;62.40;;;;;;5055769;28;20115;-77
2021/09/26 08:44:07;;;;;;;15.15;5.68;;;24.50;62.40;;;;;;5055983;28;20470;-77
2021/09/26 08:46:33;;;;;;;11.35;5.72;;;24.60;61.90;;;;;;5055621;28;20028;-76
2021/09/26 08:48:59;;;;;;;18.30;5.68;;;24.70;61.80;;;;;;5055244;28;20086;-75
2021/09/26 08:51:25;;;;;;;13.02;5.60;;;24.80;61.40;;;;;;5055772;28;20144;-78
2021/09/26 08:53:51;;;;;;;18.05;5.88;;;24.80;61.00;;;;;;5055648;28;20063;-77
2021/09/26 08:56:20;;;;;;;12.88;5.47;;;24.90;60.80;;;;;;5055298;28;20021;-77
2021/09/26 08:58:46;;;;;;;18.88;5.60;;;25.00;60.90;;;;;;5055558;28;20017;-76
2021/09/26 09:01:12;;;;;;;10.18;5.32;;;25.10;60.40;;;;;;5055544;28;20041;-75
2021/09/26 09:03:38;;;;;;;13.02;5.55;;;25.30;60.40;;;;;;5055513;28;20377;-75
2021/09/26 09:06:04;;;;;;;11.07;4.78;;;25.30;59.80;;;;;;5055135;28;20358;-74
2021/09/26 09:08:29;;;;;;;14.65;4.68;;;25.40;59.00;;;;;;5053758;28;20050;-75
2021/09/26 09:11:00;;;;;;;11.15;4.50;;;25.50;57.80;;;;;;5055762;28;20024;-77
2021/09/26 09:13:32;;;;;;;10.82;3.95;;;25.50;57.30;;;;;;5055427;28;20405;-76
2021/09/26 09:16:03;;;;;;;8.40;4.25;;;25.60;56.50;;;;;;5054995;28;20488;-76
2021/09/26 09:18:51;;;;;;;8.88;4.18;;;25.70;55.90;;;;;;5055420;28;20504;-75
2021/09/26 09:21:21;;;;;;;12.38;4.45;;;25.80;54.80;;;;;;5053965;28;20119;-76
2021/09/26 09:23:48;;;;;;;11.77;4.30;;;25.90;55.40;;;;;;5055070;28;20031;-76
2021/09/26 09:26:14;;;;;;;12.60;4.75;;;26.00;53.60;;;;;;5054844;28;20049;-76
2021/09/26 09:28:42;;;;;;;12.95;5.15;;;26.10;53.40;;;;;;5054931;28;20021;-76
2021/09/26 09:31:10;;;;;;;13.82;4.80;;;26.20;53.70;;;;;;5055254;28;20017;-76
2021/09/26 09:33:41;;;;;;;13.27;4.60;;;26.30;53.10;;;;;;5055031;28;20104;-76
2021/09/26 09:36:22;;;;;;;14.15;4.75;;;26.40;52.60;;;;;;5053292;28;20029;-75
2021/09/26 09:38:51;;;;;;;10.75;5.10;;;26.40;52.70;;;;;;5054945;28;20031;-76
2021/09/26 09:41:42;;;;;;;15.00;5.53;;;26.40;52.80;;;;;;5055122;28;20064;-78
2021/09/26 09:44:12;;;;;;;15.85;5.32;;;26.40;54.10;;;;;;5054898;28;20021;-77
2021/09/26 09:46:44;;;;;;;14.98;6.05;;;26.30;53.10;;;;;;5054873;28;20112;-75
2021/09/26 09:49:19;;;;;;;17.67;5.75;;;26.30;54.60;;;;;;5053427;28;20569;-77
2021/09/26 09:51:54;;;;;;;11.23;5.22;;;26.30;53.80;;;;;;5054519;28;20100;-76
2021/09/26 09:54:40;;;;;;;12.57;5.13;;;26.30;53.80;;;;;;5055213;28;20036;-77
2021/09/26 09:57:25;;;;;;;16.27;5.60;;;26.40;55.20;;;;;;5054777;28;20382;-77
2021/09/26 09:59:51;;;;;;;13.32;4.93;;;26.50;54.70;;;;;;5055360;28;20030;-75
2021/09/26 10:02:17;;;;;;;11.48;4.88;;;26.60;55.70;;;;;;5058241;28;20036;-75
2021/09/26 10:04:47;;;;;;;13.85;5.05;;;26.70;54.30;;;;;;5054471;28;20021;-76
2021/09/26 10:07:32;;;;;;;9.82;4.55;;;26.80;56.10;;;;;;5053136;28;20037;-75
2021/09/26 10:09:58;;;;;;;11.27;5.38;;;26.80;55.20;;;;;;5054443;28;20021;-77
2021/09/26 10:12:30;;;;;;;11.52;4.68;;;26.90;55.70;;;;;;5054116;28;20025;-78
2021/09/26 10:15:01;;;;;;;161.82;24.95;;;27.00;55.80;;;;;;5054269;28;20033;-77
2021/09/26 10:17:28;;;;;;;30.63;7.30;;;27.10;55.80;;;;;;5053174;28;20037;-78
2021/09/26 10:19:54;;;;;;;18.58;5.00;;;27.10;55.90;;;;;;5054037;28;20041;-77
2021/09/26 10:22:21;;;;;;;18.00;4.45;;;27.20;55.70;;;;;;5054199;28;20174;-77
2021/09/26 10:24:49;;;;;;;13.60;4.55;;;27.20;55.70;;;;;;5054307;28;20021;-76
2021/09/26 10:27:28;;;;;;;12.65;4.25;;;27.30;53.50;;;;;;5053870;28;20107;-77
2021/09/26 10:30:03;;;;;;;16.50;4.68;;;27.40;54.00;;;;;;5053841;28;20025;-77
2021/09/26 10:32:29;;;;;;;11.77;4.07;;;27.40;54.00;;;;;;5053862;28;20100;-78
2021/09/26 10:34:55;;;;;;;11.25;4.30;;;27.40;54.70;;;;;;5054015;28;20414;-78
2021/09/26 10:37:22;;;;;;;12.43;4.45;;;27.40;55.60;;;;;;5053644;28;20029;-78
2021/09/26 10:39:49;;;;;;;14.43;4.70;;;27.40;56.40;;;;;;5054023;28;20084;-78
2021/09/26 10:42:21;;;;;;;14.25;4.60;;;27.30;58.30;;;;;;5056659;28;20036;-76
2021/09/26 10:44:55;;;;;;;10.27;4.38;;;27.30;59.70;;;;;;5056734;28;20022;-76
2021/09/26 10:47:51;;;;;;;16.00;4.30;;;27.20;61.20;;;;;;5053543;28;20028;-77
2021/09/26 10:50:16;;;;;;;17.65;4.97;;;27.10;62.60;;;;;;5053560;28;20036;-77
2021/09/26 10:52:44;;;;;;;12.57;4.90;;;27.10;63.00;;;;;;5053281;28;20021;-76
2021/09/26 10:55:17;;;;;;;10.07;4.55;;;27.00;63.60;;;;;;5053076;28;20021;-75
2021/09/26 10:57:46;;;;;;;13.48;4.22;;;27.00;64.60;;;;;;5053052;28;20028;-75
2021/09/26 11:00:28;;;;;;;11.27;4.68;;;27.00;65.50;;;;;;5053112;28;20037;-76
2021/09/26 11:02:54;;;;;;;12.85;4.20;;;26.90;65.70;;;;;;5053223;28;20029;-77
2021/09/26 11:05:32;;;;;;;13.80;4.55;;;26.90;66.60;;;;;;5053156;28;20025;-77
2021/09/26 11:07:59;;;;;;;12.63;3.88;;;26.80;66.30;;;;;;5053383;28;20028;-75
2021/09/26 11:10:46;;;;;;;12.85;4.88;;;26.80;67.70;;;;;;5053112;28;20509;-75
2021/09/26 11:13:37;;;;;;;11.52;4.88;;;26.90;66.40;;;;;;5051933;28;20141;-76
2021/09/26 11:16:18;;;;;;;19.10;6.00;;;26.90;67.00;;;;;;5053421;28;20021;-76
2021/09/26 11:19:12;;;;;;;13.63;4.80;;;26.90;68.90;;;;;;5052574;28;20032;-76
2021/09/26 11:21:40;;;;;;;15.55;5.03;;;26.90;67.20;;;;;;5052488;28;20409;-76
2021/09/26 11:24:22;;;;;;;19.30;5.13;;;26.90;68.70;;;;;;5053099;28;20025;-75
2021/09/26 11:27:00;;;;;;;16.55;5.22;;;27.00;68.10;;;;;;5052776;28;20102;-75
2021/09/26 11:29:38;;;;;;;25.95;11.23;;;27.00;68.00;;;;;;5053208;28;20017;-76
2021/09/26 11:32:05;;;;;;;19.55;8.02;;;27.00;67.80;;;;;;5051481;28;20037;-75
2021/09/26 11:34:39;;;;;;;14.63;6.30;;;27.00;67.80;;;;;;5053036;28;20032;-75
2021/09/26 11:37:08;;;;;;;16.23;5.35;;;27.00;66.90;;;;;;5052942;28;20029;-76
2021/09/26 11:39:34;;;;;;;14.20;4.78;;;27.00;68.10;;;;;;5052936;28;20033;-75
2021/09/26 11:42:01;;;;;;;10.80;4.47;;;27.00;67.80;;;;;;5053011;28;20103;-75
2021/09/26 11:44:27;;;;;;;11.57;4.55;;;27.10;67.50;;;;;;5053129;28;20481;-75
2021/09/26 11:46:55;;;;;;;13.45;4.90;;;27.10;67.20;;;;;;5054757;28;20053;-77
2021/09/26 11:49:21;;;;;;;20.33;5.28;;;27.10;68.20;;;;;;5053146;28;20021;-75
2021/09/26 11:51:48;;;;;;;15.32;4.85;;;27.10;68.70;;;;;;5052958;28;20021;-75
2021/09/26 11:54:15;;;;;;;14.13;5.00;;;27.10;68.90;;;;;;5053083;28;20032;-78
2021/09/26 11:56:43;;;;;;;24.70;5.70;;;27.20;68.80;;;;;;5053345;28;20082;-75
2021/09/26 11:59:15;;;;;;;14.57;4.95;;;27.30;68.90;;;;;;5053242;28;20029;-75
2021/09/26 12:01:44;;;;;;;11.68;4.80;;;27.40;67.70;;;;;;5053117;28;20066;-77
2021/09/26 12:04:13;;;;;;;17.85;4.50;;;27.50;66.80;;;;;;5053137;28;20112;-78
2021/09/26 12:06:51;;;;;;;12.85;4.47;;;27.50;67.50;;;;;;5053140;28;20390;-77
2021/09/26 12:09:40;;;;;;;13.73;4.68;;;27.60;66.30;;;;;;5053236;28;20029;-75
2021/09/26 12:12:20;;;;;;;9.70;4.88;;;27.60;66.20;;;;;;5053140;28;20052;-75
2021/09/26 12:15:01;;;;;;;11.15;4.32;;;27.70;65.10;;;;;;5052858;28;20028;-76
2021/09/26 12:17:29;;;;;;;18.00;4.82;;;27.80;65.30;;;;;;5062652;28;20021;-79
2021/09/26 12:19:59;;;;;;;11.05;4.35;;;27.80;65.90;;;;;;5053211;28;20049;-77
2021/09/26 12:22:27;;;;;;;15.57;4.97;;;27.80;66.30;;;;;;5053770;28;20062;-78
2021/09/26 12:25:00;;;;;;;17.67;5.03;;;27.80;66.00;;;;;;5057113;28;20028;-78
2021/09/26 12:27:31;;;;;;;13.63;4.88;;;27.80;65.60;;;;;;5056714;28;20029;-79
2021/09/26 12:30:00;;;;;;;13.85;4.57;;;27.90;65.90;;;;;;5057127;28;20025;-78
2021/09/26 12:32:30;;;;;;;14.95;4.88;;;28.00;65.30;;;;;;5056772;28;20021;-78
2021/09/26 12:34:58;;;;;;;18.73;5.20;;;28.10;64.30;;;;;;5056805;28;20040;-78
2021/09/26 12:37:28;;;;;;;22.23;5.10;;;28.10;64.40;;;;;;5056842;28;20359;-80
2021/09/26 12:39:57;;;;;;;20.02;5.20;;;28.10;63.90;;;;;;5056137;28;20037;-77
2021/09/26 12:42:32;;;;;;;17.48;4.55;;;28.10;64.00;;;;;;5056398;28;20024;-76
2021/09/26 12:45:22;;;;;;;18.75;5.13;;;28.20;64.30;;;;;;5056208;28;20087;-78